ADDS METAR Data INFO
IDs: Format: Raw Decoded Include TAF

Data at: 2050 UTC 19 Jul 2018

KMKC 191954Z AUTO 11009G18KT 10SM CLR 32/22 A2980 RMK AO2 LTG DSNT SE AND S SLP081 T03170222
KMKC 191942Z AUTO 10009KT 10SM CLR 32/22 A2981 RMK AO2 LTG DSNT SE T03220222
KMKC 191927Z 10009KT 10SM VCTS CLR 31/22 A2980 RMK AO2 LTG DSNT E AND SE T03110217
KMKC 191914Z 08012KT 10SM FEW055 31/23 A2979 RMK AO2 LTG DSNT E AND SE T03060233
KMKC 191854Z 06008G18KT 10SM VCTS BKN050 BKN060 29/23 A2979 RMK AO2 LTG DSNT E AND SE RAB17E32 TSB22E51 SLP079 P0000 T02940233
KMKC 191828Z 32006KT 10SM -TSRA FEW039 SCT050 BKN100 33/23 A2979 RMK AO2 LTG DSNT E AND SE RAB17 TSB22 P0000 T03280228
KMKC 191754Z 21010KT 10SM FEW047 FEW055 35/22 A2981 RMK AO2 SLP084 T03500222 10350 20250 56006
KMKC 191654Z 20004KT 10SM CLR 34/23 A2982 RMK AO2 LTG DSNT NE SLP089 T03440228
KMKC 191554Z 20010KT 10SM CLR 33/23 A2981 RMK AO2 SLP085 T03280228
KMKC 191454Z 22008KT 10SM CLR 31/23 A2983 RMK AO2 SLP090 T03060228 56013
KMKC 191354Z 21007KT 10SM SCT055 28/23 A2984 RMK AO2 SLP096 T02780228
KMKC 191254Z 20009KT 10SM BKN045 26/22 A2985 RMK AO2 SLP099 T02560222
KMKC 191154Z 17005KT 10SM FEW036 BKN070 25/22 A2987 RMK AO2 SLP105 7//// T02500222 10261 20244 55003
KMKC 191054Z 00000KT 10SM CLR 24/22 A2986 RMK AO2 SLP102 T02440217
KMKC 190954Z AUTO 12005KT 10SM CLR 24/22 A2987 RMK AO2 SLP105 T02440217
KMKC 190854Z AUTO 13004KT 10SM FEW090 25/21 A2988 RMK AO2 SLP108 T02500211 55007
KMKC 190754Z AUTO 11004KT 10SM CLR 26/21 A2987 RMK AO2 SLP107 T02560211
KMKC 190654Z 14005KT 10SM CLR 26/22 A2987 RMK AO2 SLP106 T02560217
KMKC 190554Z 12005KT 10SM CLR 26/22 A2990 RMK AO2 SLP116 T02610217 10294 20261 403060222 58004
KMKC 190454Z 11004KT 10SM CLR 27/22 A2991 RMK AO2 SLP122 T02670217
KMKC 190354Z 09005KT 10SM SCT065 27/22 A2992 RMK AO2 SLP122 T02670217
KMKC 190254Z 07004KT 10SM CLR 27/22 A2991 RMK AO2 SLP121 T02720217 53004
KMKC 190154Z 08006KT 10SM CLR 28/22 A2990 RMK AO2 SLP116 T02780217
KMKC 190054Z 07007KT 10SM SCT060 BKN095 29/22 A2989 RMK AO2 SLP114 T02890217
KMKC 182354Z 07008G15KT 10SM FEW032 FEW070 FEW085 29/22 A2990 RMK AO2 SLP117 T02940222 10306 20272 56008
KMKC 182254Z 08007KT 10SM FEW036 30/22 A2991 RMK AO2 SLP118 T03000222
KMKC 182154Z 10007G15KT 10SM SCT026 SCT031 BKN042 29/22 A2991 RMK AO2 SLP118 T02940217
KMKC 182119Z 10008KT 10SM SCT027 SCT032 BKN041 30/22 A2991 RMK AO2 T03000222
KMKC 182054Z 09010KT 10SM BKN028 30/22 A2992 RMK AO2 SLP124 T03000217 58021
KMKC 182045Z 08009KT 10SM BKN028 30/22 A2993 RMK AO2 T03000217
KMKC 181954Z 06007KT 10SM FEW026 SCT070 29/22 A2995 RMK AO2 SLP132 T02940217
KMKC 181901Z 07009KT 10SM FEW019 BKN045 OVC070 28/21 A2997 RMK AO2 T02780211
KMKC 181854Z 07009KT 10SM SCT019 BKN028 OVC060 28/21 A2997 RMK AO2 SLP142 T02780211
KMKC 181842Z 05008KT 10SM FEW017 BKN035 OVC044 27/22 A2998 RMK AO2 T02720217
KMKC 181829Z 06008KT 10SM SCT017 BKN026 OVC037 27/21 A2998 RMK AO2 T02720211
KMKC 181754Z 06007KT 10SM SCT014 OVC039 28/22 A2999 RMK AO2 SLP147 6//// T02780217 10278 20222 58011
KMKC 181714Z VRB06KT 10SM BKN011 BKN035 27/22 A3000 RMK AO2 T02670222
KMKC 181701Z 09007KT 10SM BKN009 OVC037 26/22 A3000 RMK AO2 T02560217
KMKC 181654Z 10005KT 10SM SCT009 OVC033 25/21 A3000 RMK AO2 SLP153 T02500211
KMKC 181554Z 10003KT 9SM FEW006 BKN030 OVC036 24/21 A3001 RMK AO2 RAB21E46 SLP157 P0000 T02390211
KMKC 181529Z 11006KT 4SM -RA SCT007 SCT019 OVC028 23/21 A3002 RMK AO2 RAB21 P0000 T02330206
KMKC 181454Z 07007KT 10SM OVC008 23/20 A3002 RMK AO2 RAE12 SLP159 P0000 6//// T02280200 51004
KMKC 181425Z 08005KT 10SM BKN011 OVC031 23/20 A3002 RMK AO2 RAE12 P0000 T02280200 $
KMKC 181354Z 09006KT 6SM -RA SCT030 BKN034 OVC060 23/19 A3001 RMK AO2 RAB11 SLP155 T02280194 PNO $
KMKC 181350Z 08008KT 3SM -RA FEW025 BKN032 OVC055 23/20 A3001 RMK AO2 RAB11 PNO $
KMKC 181348Z 08006KT 2SM -RA BR BKN028 BKN032 OVC055 22/20 A3001 RMK AO2 RAB11 PNO $
KMKC 181331Z 06006KT 1 3/4SM +RA FEW019 BKN031 OVC055 23/19 A3001 RMK AO2 RAB11 P0000 T02280194
KMKC 181254Z AUTO 06007KT 10SM FEW021 BKN045 OVC090 23/20 A3001 RMK AO2 RAE15 SLP154 P0001 T02280200
KMKC 181154Z 10007KT 8SM -RA FEW038 OVC090 23/20 A3000 RMK AO2 SLP152 P0002 60002 70006 T02280200 10239 20228 58002
KMKC 181054Z 10005KT 8SM -RA FEW047 BKN070 OVC095 23/20 A3000 RMK AO2 RAB40 SLP152 P0000 T02330200
KMKC 180954Z 09006KT 10SM OVC070 24/19 A3001 RMK AO2 SLP153 T02390194
KMKC 180854Z 08005KT 10SM FEW090 24/19 A3001 RMK AO2 SLP153 T02390189 56011